createdAt,value
2018-03-16T00:00:43.786Z,3.18
2018-03-16T00:01:43.784Z,3.23
2018-03-16T00:02:43.778Z,3.20
2018-03-16T00:03:43.776Z,3.21
2018-03-16T00:04:43.769Z,3.20
2018-03-16T00:05:43.762Z,3.23
2018-03-16T00:06:43.759Z,3.24
2018-03-16T00:07:43.756Z,3.24
2018-03-16T00:08:43.749Z,3.23
2018-03-16T00:09:43.742Z,3.23
2018-03-16T00:10:43.738Z,3.27
2018-03-16T00:11:43.736Z,3.27
2018-03-16T00:12:43.728Z,3.25
2018-03-16T00:13:43.723Z,3.30
2018-03-16T00:14:43.717Z,3.27
2018-03-16T00:15:43.712Z,3.27
2018-03-16T00:16:43.708Z,3.31
2018-03-16T00:17:43.701Z,3.36
2018-03-16T00:18:43.696Z,3.36
2018-03-16T00:19:43.694Z,3.30
2018-03-16T00:20:43.686Z,3.25
2018-03-16T00:21:43.680Z,3.25
2018-03-16T00:22:43.676Z,3.18
2018-03-16T00:23:43.672Z,3.23
2018-03-16T00:24:43.667Z,3.31
2018-03-16T00:25:43.716Z,3.36
2018-03-16T00:26:43.656Z,3.25
2018-03-16T00:27:43.653Z,3.31
2018-03-16T00:28:43.646Z,3.25
2018-03-16T00:29:43.646Z,3.23
2018-03-16T00:30:43.636Z,3.31
2018-03-16T00:31:43.637Z,3.40
2018-03-16T00:32:43.627Z,3.36
2018-03-16T00:33:43.623Z,3.34
2018-03-16T00:34:43.614Z,3.33
2018-03-16T00:35:43.611Z,3.28
2018-03-16T00:36:43.607Z,3.40
2018-03-16T00:37:43.601Z,3.33
2018-03-16T00:38:43.594Z,3.36
2018-03-16T00:39:43.590Z,3.42
2018-03-16T00:40:43.584Z,3.44
2018-03-16T00:41:43.583Z,3.42
2018-03-16T00:42:43.577Z,3.49
2018-03-16T00:43:43.571Z,3.47
2018-03-16T00:44:43.565Z,3.54
2018-03-16T00:45:43.560Z,3.54
2018-03-16T00:46:43.556Z,3.53
2018-03-16T00:47:43.550Z,3.46
2018-03-16T00:48:43.545Z,3.42
2018-03-16T00:49:43.541Z,3.42
2018-03-16T00:50:43.535Z,3.57
2018-03-16T00:51:43.531Z,3.42
2018-03-16T00:52:43.525Z,3.52
2018-03-16T00:53:43.524Z,3.43
2018-03-16T00:54:43.516Z,3.40
2018-03-16T00:55:43.510Z,3.43
2018-03-16T00:56:43.504Z,3.42
2018-03-16T00:57:43.501Z,3.49
2018-03-16T00:58:43.495Z,3.52
2018-03-16T00:59:43.494Z,3.54
2018-03-16T01:00:43.486Z,3.42
2018-03-16T01:01:43.482Z,3.54
2018-03-16T01:02:43.476Z,3.53
2018-03-16T01:03:43.469Z,3.46
2018-03-16T01:04:43.466Z,3.61
2018-03-16T01:05:43.463Z,3.53
2018-03-16T01:06:43.455Z,3.54
2018-03-16T01:07:43.453Z,3.58
2018-03-16T01:08:43.471Z,3.50
2018-03-16T01:09:43.441Z,3.42
2018-03-16T01:10:43.435Z,3.43
2018-03-16T01:11:43.431Z,3.33
2018-03-16T01:12:43.426Z,3.24
2018-03-16T01:13:43.426Z,3.25
2018-03-16T01:14:43.421Z,3.20
2018-03-16T01:15:43.411Z,3.09
2018-03-16T01:16:43.406Z,3.10
2018-03-16T01:17:43.401Z,3.12
2018-03-16T01:18:43.396Z,3.07
2018-03-16T01:19:43.392Z,2.92
2018-03-16T01:20:43.387Z,2.94
2018-03-16T01:21:43.388Z,2.95
2018-03-16T01:22:43.378Z,2.97
2018-03-16T01:23:43.372Z,2.84
2018-03-16T01:24:43.368Z,2.84
2018-03-16T01:25:43.367Z,2.89
2018-03-16T01:26:43.359Z,2.91
2018-03-16T01:27:43.352Z,2.82
2018-03-16T01:28:43.347Z,2.82
2018-03-16T01:29:43.342Z,2.70
2018-03-16T01:30:43.336Z,2.74
2018-03-16T01:31:43.332Z,2.59
2018-03-16T01:32:43.328Z,2.55
2018-03-16T01:33:43.322Z,2.52
2018-03-16T01:34:43.319Z,2.52
2018-03-16T01:35:43.351Z,2.49
2018-03-16T01:36:43.307Z,2.49
2018-03-16T01:37:43.302Z,2.56
2018-03-16T01:38:43.296Z,2.44
2018-03-16T01:39:43.291Z,2.44
2018-03-16T01:40:43.285Z,2.41
2018-03-16T01:41:43.281Z,2.44
2018-03-16T01:42:43.276Z,2.49
2018-03-16T01:43:43.270Z,2.38
2018-03-16T01:44:43.266Z,2.46
2018-03-16T01:45:43.260Z,2.44
2018-03-16T01:46:43.254Z,2.46
2018-03-16T01:47:43.248Z,2.48
2018-03-16T01:48:43.243Z,2.53
2018-03-16T01:49:43.237Z,2.51
2018-03-16T01:50:43.233Z,2.49
2018-03-16T01:51:43.225Z,2.51
2018-03-16T01:52:43.221Z,2.46
2018-03-16T01:53:43.222Z,2.48
2018-03-16T01:54:43.214Z,2.35
2018-03-16T01:55:43.206Z,2.35
2018-03-16T01:56:43.203Z,2.27
2018-03-16T01:57:43.196Z,2.33
2018-03-16T01:58:43.189Z,2.28
2018-03-16T01:59:43.187Z,2.26
2018-03-16T02:00:43.178Z,2.26
2018-03-16T02:01:43.173Z,2.19
2018-03-16T02:02:43.169Z,2.13
2018-03-16T02:03:43.163Z,2.19
2018-03-16T02:04:43.160Z,2.13
2018-03-16T02:05:43.154Z,2.22
2018-03-16T02:06:43.146Z,2.19
2018-03-16T02:07:43.140Z,2.19
2018-03-16T02:08:43.135Z,2.10
2018-03-16T02:09:43.130Z,2.16
2018-03-16T02:10:43.124Z,2.16
2018-03-16T02:11:43.119Z,2.19
2018-03-16T02:12:43.115Z,2.16
2018-03-16T02:13:43.108Z,2.17
2018-03-16T02:14:43.101Z,2.16
2018-03-16T02:15:43.098Z,2.19
2018-03-16T02:16:43.092Z,2.12
2018-03-16T02:17:43.086Z,2.19
2018-03-16T02:18:43.080Z,2.12
2018-03-16T02:19:43.083Z,2.12
2018-03-16T02:20:43.070Z,2.13
2018-03-16T02:21:43.065Z,2.15
2018-03-16T02:22:43.058Z,2.17
2018-03-16T02:23:43.053Z,2.10
2018-03-16T02:24:43.048Z,2.02
2018-03-16T02:25:43.042Z,2.08
2018-03-16T02:26:43.035Z,2.09
2018-03-16T02:27:43.030Z,2.04
2018-03-16T02:28:43.025Z,2.06
2018-03-16T02:29:43.020Z,2.08
2018-03-16T02:30:43.014Z,2.02
2018-03-16T02:31:43.008Z,2.02
2018-03-16T02:32:43.003Z,2.13
2018-03-16T02:33:42.999Z,2.02
2018-03-16T02:34:42.991Z,2.04
2018-03-16T02:35:42.984Z,2.08
2018-03-16T02:36:42.983Z,2.06
2018-03-16T02:37:42.978Z,2.10
2018-03-16T02:38:42.970Z,2.08
2018-03-16T02:39:42.962Z,2.09
2018-03-16T02:40:42.958Z,2.02
2018-03-16T02:41:42.953Z,2.02
2018-03-16T02:42:42.947Z,1.93
2018-03-16T02:43:42.946Z,2.01
2018-03-16T02:44:42.937Z,2.06
2018-03-16T02:45:42.929Z,2.01
2018-03-16T02:46:42.923Z,2.02
2018-03-16T02:47:42.921Z,2.10
2018-03-16T02:48:42.914Z,1.93
2018-03-16T02:49:42.907Z,2.09
2018-03-16T02:50:42.902Z,2.01
2018-03-16T02:51:42.898Z,2.08
2018-03-16T02:52:42.891Z,2.06
2018-03-16T02:53:42.886Z,2.17
2018-03-16T02:54:42.885Z,2.10
2018-03-16T02:55:42.872Z,2.10
2018-03-16T02:56:42.869Z,2.13
2018-03-16T02:57:42.912Z,2.13
2018-03-16T02:58:42.863Z,2.12
2018-03-16T02:59:42.851Z,2.19
2018-03-16T03:00:42.847Z,2.10
2018-03-16T03:01:42.839Z,2.12
2018-03-16T03:02:42.832Z,2.09
2018-03-16T03:03:42.829Z,2.04
2018-03-16T03:04:42.835Z,2.08
2018-03-16T03:05:42.819Z,2.06
2018-03-16T03:06:42.872Z,2.06
2018-03-16T03:07:42.805Z,2.08
2018-03-16T03:08:42.800Z,2.02
2018-03-16T03:09:42.793Z,2.01
2018-03-16T03:10:42.788Z,2.01
2018-03-16T03:11:42.782Z,2.06
2018-03-16T03:12:42.781Z,2.04
2018-03-16T03:13:42.772Z,1.99
2018-03-16T03:14:42.765Z,1.99
2018-03-16T03:15:42.759Z,2.01
2018-03-16T03:16:42.753Z,2.06
2018-03-16T03:17:42.748Z,2.02
2018-03-16T03:18:42.742Z,2.06
2018-03-16T03:19:42.736Z,2.08
2018-03-16T03:20:42.734Z,2.08
2018-03-16T03:21:42.726Z,2.01
2018-03-16T03:22:42.725Z,2.02
2018-03-16T03:23:42.714Z,2.06
2018-03-16T03:24:42.707Z,2.09
2018-03-16T03:25:42.705Z,2.09
2018-03-16T03:26:42.697Z,2.04
2018-03-16T03:27:42.691Z,2.06
2018-03-16T03:28:42.687Z,2.06
2018-03-16T03:29:42.680Z,2.08
2018-03-16T03:30:42.680Z,2.09
2018-03-16T03:31:42.670Z,2.13
2018-03-16T03:32:42.664Z,2.16
2018-03-16T03:33:42.658Z,2.16
2018-03-16T03:34:42.655Z,2.20
2018-03-16T03:35:42.645Z,2.19
2018-03-16T03:36:42.644Z,2.16
2018-03-16T03:37:42.634Z,2.12
2018-03-16T03:38:42.627Z,2.04
2018-03-16T03:39:42.622Z,2.02
2018-03-16T03:40:42.617Z,2.02
2018-03-16T03:41:42.612Z,2.06
2018-03-16T03:42:42.604Z,2.04
2018-03-16T03:43:42.598Z,2.06
2018-03-16T03:44:42.595Z,2.15
2018-03-16T03:45:42.588Z,2.13
2018-03-16T03:46:42.583Z,2.13
2018-03-16T03:47:42.576Z,2.12
2018-03-16T03:48:42.572Z,2.15
2018-03-16T03:49:42.566Z,2.10
2018-03-16T03:50:42.562Z,2.17
2018-03-16T03:51:42.555Z,2.09
2018-03-16T03:52:42.548Z,2.13
2018-03-16T03:53:42.544Z,2.10
2018-03-16T03:54:42.540Z,2.10
2018-03-16T03:55:42.535Z,2.12
2018-03-16T03:56:42.526Z,2.15
2018-03-16T03:57:42.521Z,2.06
2018-03-16T03:58:42.565Z,2.04
2018-03-16T03:59:55.317Z,2.06
2018-03-16T04:00:46.552Z,1.97
2018-03-16T04:03:31.097Z,2.08
2018-03-16T04:04:31.046Z,1.89
2018-03-16T04:06:25.421Z,1.87
2018-03-16T04:07:25.395Z,1.90
2018-03-16T04:09:19.762Z,1.90
2018-03-16T04:10:19.743Z,1.82
2018-03-16T04:12:14.456Z,1.91
2018-03-16T04:13:14.094Z,1.90
2018-03-16T04:15:08.456Z,1.97
2018-03-16T04:16:08.444Z,1.93
2018-03-16T04:17:08.435Z,1.97
2018-03-16T04:18:08.427Z,1.99
2018-03-16T04:19:08.426Z,2.06
2018-03-16T04:20:08.419Z,1.99
2018-03-16T04:21:08.416Z,2.02
2018-03-16T04:22:08.406Z,1.98
2018-03-16T04:23:08.399Z,2.04
2018-03-16T04:24:08.394Z,2.04
2018-03-16T04:25:08.389Z,2.06
2018-03-16T04:26:08.382Z,1.91
2018-03-16T04:27:08.381Z,1.99
2018-03-16T04:28:08.372Z,2.08
2018-03-16T04:29:08.365Z,2.01
2018-03-16T04:30:08.359Z,2.10
2018-03-16T04:31:08.354Z,2.08
2018-03-16T04:32:08.347Z,2.04
2018-03-16T04:33:08.342Z,2.02
2018-03-16T04:34:08.336Z,2.09
2018-03-16T04:35:08.332Z,2.04
2018-03-16T04:36:08.327Z,1.99
2018-03-16T04:37:08.486Z,2.04
2018-03-16T04:38:08.313Z,2.02
2018-03-16T04:39:08.307Z,2.12
2018-03-16T04:40:08.304Z,2.08
2018-03-16T04:41:08.296Z,1.99
2018-03-16T04:42:08.290Z,2.02
2018-03-16T04:43:08.288Z,2.01
2018-03-16T04:44:08.352Z,2.08
2018-03-16T04:45:08.277Z,2.08
2018-03-16T04:46:08.279Z,2.02
2018-03-16T04:47:08.261Z,2.01
2018-03-16T04:48:08.261Z,1.98
2018-03-16T04:49:08.252Z,1.97
2018-03-16T04:50:08.243Z,1.99
2018-03-16T04:51:08.241Z,2.09
2018-03-16T04:52:08.232Z,2.09
2018-03-16T04:53:08.229Z,1.94
2018-03-16T04:54:08.221Z,2.06
2018-03-16T04:55:08.218Z,2.08
2018-03-16T04:56:08.210Z,1.93
2018-03-16T04:57:08.205Z,1.90
2018-03-16T04:58:08.198Z,1.93
2018-03-16T04:59:08.193Z,2.08
2018-03-16T05:00:08.186Z,2.06
2018-03-16T05:01:08.184Z,2.06
2018-03-16T05:02:08.174Z,2.06
2018-03-16T05:03:08.169Z,2.08
2018-03-16T05:04:08.165Z,2.02
2018-03-16T05:05:08.161Z,2.08
2018-03-16T05:06:08.150Z,2.02
2018-03-16T05:07:08.165Z,2.08
2018-03-16T05:08:08.143Z,2.08
2018-03-16T05:09:08.136Z,2.10
2018-03-16T05:10:08.141Z,2.10
2018-03-16T05:11:08.125Z,1.91
2018-03-16T05:12:08.127Z,2.08
2018-03-16T05:13:08.113Z,2.08
2018-03-16T05:14:08.105Z,2.10
2018-03-16T05:15:08.102Z,2.06
2018-03-16T05:16:08.095Z,2.06
2018-03-16T05:17:08.090Z,1.91
2018-03-16T05:18:08.084Z,2.08
2018-03-16T05:19:08.079Z,2.06
2018-03-16T05:20:08.078Z,2.04
2018-03-16T05:21:08.066Z,2.02
2018-03-16T05:22:08.061Z,2.02
2018-03-16T05:23:08.055Z,2.09
2018-03-16T05:24:08.049Z,1.94
2018-03-16T05:25:08.044Z,2.04
2018-03-16T05:26:08.048Z,2.09
2018-03-16T05:27:08.032Z,1.98
2018-03-16T05:28:08.027Z,2.02
2018-03-16T05:29:08.021Z,2.10
2018-03-16T05:30:08.014Z,2.10
2018-03-16T05:31:08.030Z,1.97
2018-03-16T05:32:08.003Z,2.08
2018-03-16T05:33:07.997Z,1.99
2018-03-16T05:34:07.993Z,2.01
2018-03-16T05:35:07.985Z,2.02
2018-03-16T05:36:07.980Z,1.99
2018-03-16T05:37:07.974Z,2.09
2018-03-16T05:38:07.968Z,2.08
2018-03-16T05:39:07.962Z,1.99
2018-03-16T05:40:07.956Z,2.02
2018-03-16T05:41:07.950Z,1.93
2018-03-16T05:42:07.949Z,2.01
2018-03-16T05:43:07.939Z,1.93
2018-03-16T05:44:07.933Z,1.94
2018-03-16T05:45:07.928Z,1.93
2018-03-16T05:46:07.960Z,1.94
2018-03-16T05:47:07.914Z,2.08
2018-03-16T05:48:07.910Z,2.04
2018-03-16T05:49:07.942Z,1.93
2018-03-16T05:50:07.898Z,1.90
2018-03-16T05:51:07.892Z,2.04
2018-03-16T05:52:07.887Z,2.10
2018-03-16T05:53:07.881Z,1.90
2018-03-16T05:54:07.875Z,1.98
2018-03-16T05:55:07.871Z,2.02
2018-03-16T05:56:07.866Z,2.02
2018-03-16T05:57:07.858Z,2.09
2018-03-16T05:58:07.876Z,2.02
2018-03-16T05:59:07.846Z,2.10
2018-03-16T06:00:07.841Z,2.08
2018-03-16T06:01:07.838Z,2.12
2018-03-16T06:02:07.829Z,2.12
2018-03-16T06:03:07.823Z,2.09
2018-03-16T06:04:07.817Z,2.09
2018-03-16T06:05:07.813Z,2.02
2018-03-16T06:06:07.809Z,1.99
2018-03-16T06:07:07.800Z,2.01
2018-03-16T06:08:07.794Z,2.06
2018-03-16T06:09:07.792Z,2.08
2018-03-16T06:10:07.782Z,1.99
2018-03-16T06:11:07.780Z,2.08
2018-03-16T06:12:07.772Z,1.99
2018-03-16T06:13:07.768Z,2.13
2018-03-16T06:14:07.760Z,2.08
2018-03-16T06:15:07.756Z,2.12
2018-03-16T06:16:07.749Z,2.16
2018-03-16T06:17:07.745Z,2.09
2018-03-16T06:18:07.736Z,2.12
2018-03-16T06:19:07.732Z,2.02
2018-03-16T06:20:07.726Z,2.02
2018-03-16T06:21:07.720Z,2.02
2018-03-16T06:22:07.713Z,2.02
2018-03-16T06:23:07.714Z,2.08
2018-03-16T06:24:07.707Z,2.02
2018-03-16T06:25:07.700Z,2.06
2018-03-16T06:26:07.696Z,2.09
2018-03-16T06:27:07.686Z,2.15
2018-03-16T06:28:07.689Z,2.02
2018-03-16T06:29:07.676Z,2.13
2018-03-16T06:30:07.671Z,2.13
2018-03-16T06:31:07.664Z,2.16
2018-03-16T06:32:07.659Z,2.13
2018-03-16T06:33:07.655Z,2.22
2018-03-16T06:34:07.647Z,2.16
2018-03-16T06:35:07.643Z,2.16
2018-03-16T06:36:07.648Z,2.17
2018-03-16T06:37:07.630Z,2.19
2018-03-16T06:38:07.623Z,2.12
2018-03-16T06:39:07.621Z,2.22
2018-03-16T06:40:07.612Z,2.28
2018-03-16T06:41:07.609Z,2.27
2018-03-16T06:42:07.603Z,2.27
2018-03-16T06:43:07.597Z,2.30
2018-03-16T06:44:07.591Z,2.17
2018-03-16T06:45:07.607Z,2.13
2018-03-16T06:46:07.578Z,2.20
2018-03-16T06:47:07.575Z,2.27
2018-03-16T06:48:07.568Z,2.23
2018-03-16T06:49:07.562Z,2.19
2018-03-16T06:50:07.557Z,2.26
2018-03-16T06:51:07.551Z,2.16
2018-03-16T06:52:07.546Z,2.20
2018-03-16T06:53:07.540Z,2.27
2018-03-16T06:54:07.534Z,2.23
2018-03-16T06:55:07.528Z,2.26
2018-03-16T06:56:07.524Z,2.33
2018-03-16T06:57:07.518Z,2.38
2018-03-16T06:58:07.513Z,2.37
2018-03-16T06:59:07.506Z,2.37
2018-03-16T07:00:07.500Z,2.31
2018-03-16T07:01:07.495Z,2.34
2018-03-16T07:02:07.491Z,2.30
2018-03-16T07:03:07.486Z,2.28
2018-03-16T07:04:07.478Z,2.33
2018-03-16T07:05:07.474Z,2.30
2018-03-16T07:06:07.467Z,2.34
2018-03-16T07:07:07.462Z,2.31
2018-03-16T07:08:07.457Z,2.45
2018-03-16T07:09:07.451Z,2.44
2018-03-16T07:10:07.444Z,2.34
2018-03-16T07:11:07.439Z,2.41
2018-03-16T07:12:07.447Z,2.46
2018-03-16T07:13:07.428Z,2.53
2018-03-16T07:14:07.423Z,2.49
2018-03-16T07:15:07.418Z,2.51
2018-03-16T07:16:07.413Z,2.51
2018-03-16T07:17:07.410Z,2.56
2018-03-16T07:18:07.402Z,2.52
2018-03-16T07:19:07.396Z,2.63
2018-03-16T07:20:07.392Z,2.61
2018-03-16T07:21:07.386Z,2.58
2018-03-16T07:22:07.380Z,2.63
2018-03-16T07:23:07.374Z,2.56
2018-03-16T07:24:07.370Z,2.61
2018-03-16T07:25:07.364Z,2.61
2018-03-16T07:26:07.358Z,2.73
2018-03-16T07:27:07.352Z,2.76
2018-03-16T07:28:07.350Z,2.71
2018-03-16T07:29:07.343Z,2.77
2018-03-16T07:30:07.337Z,2.77
2018-03-16T07:31:07.331Z,2.77
2018-03-16T07:32:07.327Z,2.77
2018-03-16T07:33:07.322Z,2.85
2018-03-16T07:34:07.316Z,2.81
2018-03-16T07:35:07.311Z,2.82
2018-03-16T07:36:07.310Z,2.79
2018-03-16T07:37:07.355Z,2.77
2018-03-16T07:38:07.296Z,2.79
2018-03-16T07:39:07.291Z,2.88
2018-03-16T07:40:07.286Z,2.77
2018-03-16T07:41:07.283Z,2.81
2018-03-16T07:42:07.277Z,2.91
2018-03-16T07:43:07.271Z,2.97
2018-03-16T07:44:08.082Z,2.92
2018-03-16T07:45:07.261Z,2.95
2018-03-16T07:46:07.254Z,3.03
2018-03-16T07:47:07.249Z,3.03
2018-03-16T07:48:07.246Z,3.03
2018-03-16T07:49:07.241Z,3.03
2018-03-16T07:50:07.234Z,3.00
2018-03-16T07:51:07.231Z,3.09
2018-03-16T07:52:07.230Z,3.07
2018-03-16T07:53:07.220Z,3.15
2018-03-16T07:54:07.217Z,3.18
2018-03-16T07:55:07.214Z,3.10
2018-03-16T07:56:07.210Z,3.10
2018-03-16T07:57:07.201Z,3.02
2018-03-16T07:58:07.196Z,3.10
2018-03-16T07:59:07.192Z,3.07
2018-03-16T08:00:07.193Z,3.10
2018-03-16T08:01:07.199Z,3.06
2018-03-16T08:02:07.176Z,3.09
2018-03-16T08:03:07.171Z,3.05
2018-03-16T08:04:07.171Z,3.02
2018-03-16T08:05:08.275Z,2.95
2018-03-16T08:06:07.279Z,2.95
2018-03-16T08:07:07.227Z,2.97
2018-03-16T08:08:07.219Z,3.05
2018-03-16T08:09:07.229Z,3.05
2018-03-16T08:10:07.225Z,3.05
2018-03-16T08:11:07.134Z,3.06
2018-03-16T08:12:07.130Z,3.02
2018-03-16T08:13:07.126Z,3.02
2018-03-16T08:14:07.118Z,3.09
2018-03-16T08:15:07.122Z,3.10
2018-03-16T08:16:07.113Z,3.18
2018-03-16T08:17:07.108Z,3.20
2018-03-16T08:18:07.100Z,3.23
2018-03-16T08:19:07.095Z,3.21
2018-03-16T08:20:07.094Z,3.28
2018-03-16T08:21:07.085Z,3.33
2018-03-16T08:22:07.080Z,3.47
2018-03-16T08:23:07.075Z,3.44
2018-03-16T08:24:07.116Z,3.57
2018-03-16T08:25:07.070Z,3.58
2018-03-16T08:26:07.062Z,3.60
2018-03-16T08:27:07.059Z,3.52
2018-03-16T08:28:07.080Z,3.53
2018-03-16T08:29:07.048Z,3.54
2018-03-16T08:30:07.048Z,3.60
2018-03-16T08:31:07.038Z,3.60
2018-03-16T08:32:07.036Z,3.53
2018-03-16T08:33:07.041Z,3.58
2018-03-16T08:34:07.028Z,3.43
2018-03-16T08:35:07.115Z,3.44
2018-03-16T08:36:07.018Z,3.34
2018-03-16T08:37:07.013Z,3.23
2018-03-16T08:38:07.020Z,3.30
2018-03-16T08:39:07.040Z,3.27
2018-03-16T08:40:07.002Z,3.39
2018-03-16T08:41:06.996Z,3.27
2018-03-16T08:42:06.992Z,3.36
2018-03-16T08:43:06.993Z,3.30
2018-03-16T08:44:06.982Z,3.30
2018-03-16T08:45:06.981Z,3.30
2018-03-16T08:46:06.998Z,3.40
2018-03-16T08:47:06.971Z,3.33
2018-03-16T08:48:06.964Z,3.43
2018-03-16T08:49:06.959Z,3.43
2018-03-16T08:50:06.954Z,3.52
2018-03-16T08:51:06.967Z,3.53
2018-03-16T08:52:06.947Z,3.68
2018-03-16T08:53:06.941Z,3.54
2018-03-16T08:54:06.937Z,3.64
2018-03-16T08:55:06.935Z,3.60
2018-03-16T08:56:06.932Z,3.60
2018-03-16T08:57:06.924Z,3.57
2018-03-16T08:58:06.919Z,3.65
2018-03-16T08:59:06.916Z,3.60
2018-03-16T09:00:06.911Z,3.60
2018-03-16T09:01:06.907Z,3.58
2018-03-16T09:02:06.902Z,3.57
2018-03-16T09:03:06.898Z,3.54
2018-03-16T09:04:06.896Z,3.50
2018-03-16T09:05:06.890Z,3.58
2018-03-16T09:06:06.884Z,3.53
2018-03-16T09:07:06.880Z,3.58
2018-03-16T09:08:06.875Z,3.58
2018-03-16T09:09:06.873Z,3.58
2018-03-16T09:10:06.872Z,3.49
2018-03-16T09:11:06.863Z,3.62
2018-03-16T09:12:06.860Z,3.54
2018-03-16T09:13:06.854Z,3.57
2018-03-16T09:14:06.850Z,3.50
2018-03-16T09:15:06.846Z,3.57
2018-03-16T09:16:06.846Z,3.61
2018-03-16T09:17:06.926Z,3.61
2018-03-16T09:18:06.833Z,3.58
2018-03-16T09:19:06.836Z,3.60
2018-03-16T09:20:06.830Z,3.60
2018-03-16T09:21:06.824Z,3.57
2018-03-16T09:22:06.815Z,3.61
2018-03-16T09:23:06.811Z,3.57
2018-03-16T09:24:06.806Z,3.53
2018-03-16T09:25:06.802Z,3.54
2018-03-16T09:26:06.797Z,3.53
2018-03-16T09:27:06.799Z,3.46
2018-03-16T09:28:06.790Z,3.54
2018-03-16T09:29:06.785Z,3.60
2018-03-16T09:30:06.781Z,3.57
2018-03-16T09:31:06.775Z,3.64
2018-03-16T09:32:06.773Z,3.58
2018-03-16T09:33:06.768Z,3.67
2018-03-16T09:34:06.763Z,3.68
2018-03-16T09:35:06.759Z,3.72
2018-03-16T09:36:06.754Z,3.70
2018-03-16T09:37:06.751Z,3.68
2018-03-16T09:38:06.745Z,3.78
2018-03-16T09:39:06.741Z,3.75
2018-03-16T09:40:06.738Z,3.78
2018-03-16T09:41:06.733Z,3.65
2018-03-16T09:42:06.728Z,3.71
2018-03-16T09:43:06.728Z,3.70
2018-03-16T09:44:06.721Z,3.68
2018-03-16T09:45:06.721Z,3.64
2018-03-16T09:46:06.711Z,3.71
2018-03-16T09:47:06.708Z,3.68
2018-03-16T09:48:06.703Z,3.71
2018-03-16T09:49:06.700Z,3.72
2018-03-16T09:50:06.695Z,3.89
2018-03-16T09:51:06.689Z,3.83
2018-03-16T09:52:06.686Z,3.85
2018-03-16T09:53:06.683Z,3.94
2018-03-16T09:54:06.677Z,3.88
2018-03-16T09:55:06.684Z,3.76
2018-03-16T09:56:06.669Z,3.76
2018-03-16T09:57:06.668Z,3.80
2018-03-16T09:58:06.662Z,3.85
2018-03-16T09:59:06.656Z,3.82
2018-03-16T10:00:06.653Z,3.89
2018-03-16T10:01:06.649Z,3.94
2018-03-16T10:02:06.693Z,3.89
2018-03-16T10:03:06.645Z,3.96
2018-03-16T10:04:06.636Z,3.94
2018-03-16T10:05:06.631Z,3.78
2018-03-16T10:06:06.630Z,3.85
2018-03-16T10:07:06.621Z,3.75
2018-03-16T10:08:06.617Z,3.72
2018-03-16T10:09:06.615Z,3.71
2018-03-16T10:10:06.609Z,3.76
2018-03-16T10:11:06.603Z,3.71
2018-03-16T10:12:06.638Z,3.71
2018-03-16T10:13:06.596Z,3.82
2018-03-16T10:14:06.593Z,3.92
2018-03-16T10:15:06.588Z,3.96
2018-03-16T10:16:06.584Z,3.90
2018-03-16T10:17:06.583Z,3.89
2018-03-16T10:18:06.577Z,3.98
2018-03-16T10:19:06.572Z,3.98
2018-03-16T10:20:06.568Z,3.98
2018-03-16T10:21:06.564Z,3.98
2018-03-16T10:22:06.559Z,3.94
2018-03-16T10:23:06.557Z,3.88
2018-03-16T10:24:06.551Z,3.83
2018-03-16T10:25:06.548Z,3.80
2018-03-16T10:26:06.542Z,3.75
2018-03-16T10:27:06.538Z,3.72
2018-03-16T10:28:06.536Z,3.75
2018-03-16T10:29:06.531Z,3.76
2018-03-16T10:30:06.549Z,3.68
2018-03-16T10:31:06.591Z,3.71
2018-03-16T10:32:06.521Z,3.65
2018-03-16T10:33:06.513Z,3.71
2018-03-16T10:34:06.508Z,3.65
2018-03-16T10:35:06.506Z,3.78
2018-03-16T10:36:06.502Z,3.72
2018-03-16T10:37:06.542Z,3.76
2018-03-16T10:38:06.493Z,3.75
2018-03-16T10:39:06.486Z,3.75
2018-03-16T10:40:06.484Z,3.80
2018-03-16T10:41:06.485Z,3.78
2018-03-16T10:42:06.476Z,3.72
2018-03-16T10:43:06.472Z,3.75
2018-03-16T10:44:06.466Z,3.75
2018-03-16T10:45:06.463Z,3.80
2018-03-16T10:46:06.460Z,3.82
2018-03-16T10:47:06.456Z,3.78
2018-03-16T10:48:06.453Z,3.89
2018-03-16T10:49:06.450Z,3.80
2018-03-16T10:50:06.443Z,3.72
2018-03-16T10:51:06.437Z,3.71
2018-03-16T10:52:06.436Z,3.70
2018-03-16T10:53:06.427Z,3.65
2018-03-16T10:54:06.423Z,3.70
2018-03-16T10:55:06.419Z,3.76
2018-03-16T10:56:06.414Z,3.76
2018-03-16T10:57:06.413Z,3.76
2018-03-16T10:58:06.407Z,3.78
2018-03-16T10:59:06.402Z,3.75
2018-03-16T11:00:06.398Z,3.80
2018-03-16T11:01:06.394Z,3.76
2018-03-16T11:02:06.388Z,3.80
2018-03-16T11:03:06.390Z,3.71
2018-03-16T11:04:06.383Z,3.71
2018-03-16T11:05:06.376Z,3.64
2018-03-16T11:06:06.370Z,3.67
2018-03-16T11:07:06.368Z,3.62
2018-03-16T11:08:06.362Z,3.64
2018-03-16T11:09:06.359Z,3.65
2018-03-16T11:10:06.356Z,3.75
2018-03-16T11:11:06.370Z,3.61
2018-03-16T11:12:06.345Z,3.60
2018-03-16T11:13:06.347Z,3.70
2018-03-16T11:14:06.337Z,3.70
2018-03-16T11:15:06.332Z,3.71
2018-03-16T11:16:06.328Z,3.71
2018-03-16T11:17:06.326Z,3.75
2018-03-16T11:18:06.358Z,3.72
2018-03-16T11:19:06.315Z,3.82
2018-03-16T11:20:06.312Z,3.82
2018-03-16T11:21:06.310Z,3.85
2018-03-16T11:22:06.319Z,3.76
2018-03-16T11:23:06.302Z,3.83
2018-03-16T11:24:06.294Z,3.85
2018-03-16T11:25:06.292Z,3.83
2018-03-16T11:26:06.287Z,3.82
2018-03-16T11:27:06.288Z,3.90
2018-03-16T11:28:06.286Z,3.89
2018-03-16T11:29:06.272Z,3.94
2018-03-16T11:30:06.268Z,3.88
2018-03-16T11:31:06.271Z,3.88
2018-03-16T11:32:06.267Z,3.92
2018-03-16T11:33:06.255Z,3.90
2018-03-16T11:34:06.264Z,3.86
2018-03-16T11:35:06.246Z,3.98
2018-03-16T11:36:06.244Z,3.96
2018-03-16T11:37:06.243Z,3.97
2018-03-16T11:38:06.236Z,4.00
2018-03-16T11:39:06.282Z,3.89
2018-03-16T11:40:06.224Z,3.86
2018-03-16T11:41:06.221Z,3.76
2018-03-16T11:42:06.222Z,3.85
2018-03-16T11:43:06.589Z,3.88
2018-03-16T11:44:06.314Z,3.82
2018-03-16T11:45:06.258Z,3.79
2018-03-16T11:46:07.045Z,3.89
2018-03-16T11:47:06.197Z,3.79
2018-03-16T11:48:06.227Z,3.82
2018-03-16T11:49:06.187Z,3.80
2018-03-16T11:50:06.189Z,3.83
2018-03-16T11:51:06.244Z,3.72
2018-03-16T11:52:06.174Z,3.68
2018-03-16T11:53:06.171Z,3.75
2018-03-16T11:54:06.168Z,3.75
2018-03-16T11:55:06.189Z,3.71
2018-03-16T11:56:06.159Z,3.70
2018-03-16T11:57:06.155Z,3.64
2018-03-16T11:58:06.216Z,3.67
2018-03-16T11:59:06.264Z,3.64
2018-03-16T12:00:06.140Z,3.67
2018-03-16T12:01:06.142Z,3.67
2018-03-16T12:02:06.178Z,3.65
2018-03-16T12:03:06.127Z,3.60
2018-03-16T12:04:06.126Z,3.61
2018-03-16T12:05:06.118Z,3.64
2018-03-16T12:06:06.115Z,3.54
2018-03-16T12:07:06.111Z,3.61
2018-03-16T12:08:06.107Z,3.57
2018-03-16T12:09:06.102Z,3.53
2018-03-16T12:10:06.113Z,3.50
2018-03-16T12:11:06.092Z,3.54
2018-03-16T12:12:06.088Z,3.52
2018-03-16T12:13:06.082Z,3.57
2018-03-16T12:14:06.078Z,3.57
2018-03-16T12:15:06.078Z,3.64
2018-03-16T12:16:06.070Z,3.58
2018-03-16T12:17:06.069Z,3.67
2018-03-16T12:18:06.062Z,3.60
2018-03-16T12:19:06.066Z,3.61
2018-03-16T12:20:06.054Z,3.54
2018-03-16T12:21:06.047Z,3.53
2018-03-16T12:22:06.041Z,3.62
2018-03-16T12:23:06.042Z,3.52
2018-03-16T12:24:06.032Z,3.64
2018-03-16T12:25:06.029Z,3.62
2018-03-16T12:26:06.026Z,3.60
2018-03-16T12:27:06.019Z,3.61
2018-03-16T12:28:06.014Z,3.53
2018-03-16T12:29:06.009Z,3.58
2018-03-16T12:30:06.010Z,3.39
2018-03-16T12:31:06.000Z,3.46
2018-03-16T12:32:05.996Z,3.43
2018-03-16T12:33:05.991Z,3.46
2018-03-16T12:34:05.986Z,3.36
2018-03-16T12:35:05.984Z,3.31
2018-03-16T12:36:05.985Z,3.40
2018-03-16T12:37:05.975Z,3.25
2018-03-16T12:38:05.968Z,3.24
2018-03-16T12:39:05.964Z,3.18
2018-03-16T12:40:05.959Z,3.21
2018-03-16T12:41:05.955Z,3.09
2018-03-16T12:42:05.948Z,3.10
2018-03-16T12:43:05.947Z,3.06
2018-03-16T12:44:05.942Z,3.06
2018-03-16T12:45:05.938Z,3.05
2018-03-16T12:46:05.931Z,3.06
2018-03-16T12:47:05.930Z,2.95
2018-03-16T12:48:05.921Z,3.00
2018-03-16T12:49:05.915Z,3.05
2018-03-16T12:50:05.909Z,3.06
2018-03-16T12:51:05.909Z,2.98
2018-03-16T12:52:05.904Z,2.95
2018-03-16T12:53:05.897Z,2.94
2018-03-16T12:54:05.891Z,2.85
2018-03-16T12:55:05.885Z,2.73
2018-03-16T12:56:05.880Z,2.77
2018-03-16T12:57:05.878Z,2.77
2018-03-16T12:58:05.871Z,2.71
2018-03-16T12:59:05.867Z,2.63
2018-03-16T13:00:05.862Z,2.70
2018-03-16T13:01:05.856Z,2.63
2018-03-16T13:02:05.850Z,2.64
2018-03-16T13:03:05.846Z,2.61
2018-03-16T13:04:05.842Z,2.67
2018-03-16T13:05:05.838Z,2.71
2018-03-16T13:06:05.831Z,2.63
2018-03-16T13:07:05.828Z,2.70
2018-03-16T13:08:05.823Z,2.67
2018-03-16T13:09:05.816Z,2.64
2018-03-16T13:10:05.809Z,2.74
2018-03-16T13:11:05.805Z,2.69
2018-03-16T13:12:05.801Z,2.73
2018-03-16T13:13:05.797Z,2.70
2018-03-16T13:14:05.792Z,2.69
2018-03-16T13:15:05.785Z,2.73
2018-03-16T13:16:05.782Z,2.64
2018-03-16T13:17:05.778Z,2.63
2018-03-16T13:18:05.770Z,2.55
2018-03-16T13:19:05.767Z,2.55
2018-03-16T13:20:05.761Z,2.51
2018-03-16T13:21:05.756Z,2.52
2018-03-16T13:22:05.750Z,2.48
2018-03-16T13:23:05.742Z,2.53
2018-03-16T13:24:05.737Z,2.51